createdAt,value
2023-02-08T00:00:45.621Z,-4.99
2023-02-08T00:05:46.289Z,-5.03
2023-02-08T00:10:48.321Z,-5.02
2023-02-08T00:15:49.096Z,-5.06
2023-02-08T00:20:50.308Z,-5.09
2023-02-08T00:25:52.327Z,-5.09
2023-02-08T00:30:53.462Z,-5.13
2023-02-08T00:35:59.576Z,-5.16
2023-02-08T00:41:01.642Z,-5.11
2023-02-08T00:46:02.352Z,-5.17
2023-02-08T00:51:05.329Z,-5.19
2023-02-08T00:56:08.434Z,-5.28
2023-02-08T01:01:09.300Z,-5.26
2023-02-08T01:06:12.194Z,-5.32
2023-02-08T01:11:16.311Z,-5.36
2023-02-08T01:16:20.981Z,-5.48
2023-02-08T01:21:24.444Z,-5.47
2023-02-08T01:26:27.204Z,-5.51
2023-02-08T01:31:30.804Z,-5.54
2023-02-08T01:36:35.007Z,-5.60
2023-02-08T01:41:39.994Z,-5.63
2023-02-08T01:46:43.033Z,-5.68
2023-02-08T01:51:49.136Z,-5.68
2023-02-08T01:56:51.953Z,-5.65
2023-02-08T02:01:55.618Z,-5.69
2023-02-08T02:07:00.497Z,-5.70
2023-02-08T02:12:03.195Z,-5.73
2023-02-08T02:17:04.140Z,-5.72
2023-02-08T02:22:17.129Z,-5.77
2023-02-08T02:27:35.832Z,-5.76
2023-02-08T02:32:55.242Z,-5.78
2023-02-08T02:38:05.151Z,-5.80
2023-02-08T02:43:32.440Z,-5.87
2023-02-08T02:48:42.532Z,-5.83
2023-02-08T02:53:50.433Z,-5.86
2023-02-08T02:58:53.402Z,-5.87
2023-02-08T03:03:55.864Z,-5.90
2023-02-08T03:09:07.648Z,-5.95
2023-02-08T03:14:25.222Z,-5.95
2023-02-08T03:19:36.269Z,-6.00
2023-02-08T03:24:47.044Z,-6.05
2023-02-08T03:29:55.600Z,-6.08
2023-02-08T03:35:02.672Z,-6.13
2023-02-08T03:40:08.506Z,-6.15
2023-02-08T03:45:16.065Z,-6.12
2023-02-08T03:50:21.015Z,-6.17
2023-02-08T03:55:26.405Z,-6.25
2023-02-08T04:00:27.867Z,-6.25
2023-02-08T04:05:30.448Z,-6.28
2023-02-08T04:10:31.164Z,-6.31
2023-02-08T04:15:32.272Z,-6.31
2023-02-08T04:20:34.310Z,-6.35
2023-02-08T04:25:34.951Z,-6.39
2023-02-08T04:30:35.701Z,-6.42
2023-02-08T04:35:37.758Z,-6.38
2023-02-08T04:40:38.616Z,-6.45
2023-02-08T04:45:39.407Z,-6.45
2023-02-08T04:50:41.794Z,-6.53
2023-02-08T04:55:42.928Z,-6.55
2023-02-08T05:00:43.769Z,-6.58
2023-02-08T05:05:45.772Z,-6.64
2023-02-08T05:10:46.846Z,-6.58
2023-02-08T05:15:48.242Z,-6.62
2023-02-08T05:20:56.883Z,-6.64
2023-02-08T05:25:57.556Z,-6.64
2023-02-08T05:30:58.302Z,-6.61
2023-02-08T05:36:00.313Z,-6.61
2023-02-08T05:41:01.215Z,-6.61
2023-02-08T05:46:02.028Z,-6.65
2023-02-08T05:51:04.205Z,-6.64
2023-02-08T05:56:05.182Z,-6.66
2023-02-08T06:01:09.457Z,-6.60
2023-02-08T06:06:11.906Z,-6.52
2023-02-08T06:11:12.630Z,-6.44
2023-02-08T06:16:13.519Z,-6.40
2023-02-08T06:21:15.533Z,-6.35
2023-02-08T06:26:16.350Z,-6.12
2023-02-08T06:31:17.111Z,-5.67
2023-02-08T06:36:19.182Z,-5.50
2023-02-08T06:41:20.096Z,-5.35
2023-02-08T06:46:20.778Z,-5.34
2023-02-08T06:51:22.749Z,-5.21
2023-02-08T06:56:23.411Z,-5.08
2023-02-08T07:01:24.246Z,-5.01
2023-02-08T07:06:26.337Z,-4.77
2023-02-08T07:11:27.076Z,-4.69
2023-02-08T07:16:27.832Z,-4.68
2023-02-08T07:21:29.896Z,-4.56
2023-02-08T07:26:30.812Z,-4.48
2023-02-08T07:31:31.626Z,-4.37
2023-02-08T07:36:35.734Z,-4.34
2023-02-08T07:41:36.400Z,-4.21
2023-02-08T07:46:37.069Z,-4.08
2023-02-08T07:51:39.270Z,-4.03
2023-02-08T07:56:39.992Z,-3.90
2023-02-08T08:01:40.733Z,-3.74
2023-02-08T08:06:42.751Z,-3.64
2023-02-08T08:11:43.412Z,-3.52
2023-02-08T08:16:44.070Z,-3.36
2023-02-08T08:21:46.038Z,-3.22
2023-02-08T08:26:46.741Z,-3.13
2023-02-08T08:31:47.455Z,-3.00
2023-02-08T08:36:49.450Z,-2.98
2023-02-08T08:41:50.154Z,-2.94
2023-02-08T08:46:50.869Z,-2.74
2023-02-08T08:51:53.006Z,-2.69
2023-02-08T08:56:53.808Z,-2.58
2023-02-08T09:01:54.819Z,-2.52
2023-02-08T09:06:56.904Z,-2.34
2023-02-08T09:11:57.580Z,-2.41
2023-02-08T09:16:58.222Z,-2.13
2023-02-08T09:22:00.689Z,-1.96
2023-02-08T09:27:01.468Z,-1.91
2023-02-08T09:32:02.263Z,-1.83
2023-02-08T09:37:04.395Z,-1.69
2023-02-08T09:42:17.269Z,-1.51
2023-02-08T09:47:21.227Z,-1.40
2023-02-08T09:52:28.641Z,-1.34
2023-02-08T09:57:33.870Z,-1.32
2023-02-08T10:02:35.690Z,-1.20
2023-02-08T10:07:38.121Z,-1.11
2023-02-08T10:12:47.588Z,-0.96
2023-02-08T10:18:12.105Z,-0.96
2023-02-08T10:23:25.025Z,-0.83
2023-02-08T10:28:37.627Z,-0.80
2023-02-08T10:33:43.758Z,-0.82
2023-02-08T10:38:50.378Z,-0.71
2023-02-08T10:43:55.615Z,-0.69
2023-02-08T10:49:08.212Z,-0.60
2023-02-08T10:54:13.564Z,-0.45
2023-02-08T10:59:22.957Z,-0.35
2023-02-08T11:04:23.678Z,-0.26
2023-02-08T11:09:29.065Z,-0.14
2023-02-08T11:14:46.329Z,-0.16
2023-02-08T11:19:47.984Z,0.01
2023-02-08T11:24:57.648Z,0.18
2023-02-08T11:30:20.139Z,0.36
2023-02-08T11:35:23.458Z,0.40
2023-02-08T11:40:30.392Z,0.45
2023-02-08T11:45:33.226Z,0.49
2023-02-08T11:50:35.891Z,0.55
2023-02-08T11:55:37.983Z,0.66
2023-02-08T12:00:40.608Z,0.63
2023-02-08T12:05:53.787Z,0.75
2023-02-08T12:11:16.591Z,1.02
2023-02-08T12:16:36.738Z,1.03
2023-02-08T12:21:42.545Z,1.06
2023-02-08T12:27:01.507Z,1.14
2023-02-08T12:32:16.883Z,1.11
2023-02-08T12:37:53.473Z,1.05
2023-02-08T12:43:07.174Z,1.05
2023-02-08T12:48:22.609Z,1.12
2023-02-08T12:53:32.175Z,0.86
2023-02-08T12:58:40.518Z,1.04
2023-02-08T13:03:48.575Z,1.13
2023-02-08T13:08:55.091Z,1.25
2023-02-08T13:14:04.683Z,1.16
2023-02-08T13:19:27.465Z,1.33
2023-02-08T13:24:34.327Z,1.22
2023-02-08T13:29:37.561Z,1.22
2023-02-08T13:34:42.080Z,1.27
2023-02-08T13:39:46.289Z,1.12
2023-02-08T13:44:53.264Z,1.19
2023-02-08T13:49:59.999Z,1.22
2023-02-08T13:55:35.961Z,1.22
2023-02-08T14:01:01.049Z,1.24
2023-02-08T14:06:06.263Z,1.20
2023-02-08T14:11:15.311Z,1.24
2023-02-08T14:16:31.832Z,1.23
2023-02-08T14:21:39.500Z,1.19
2023-02-08T14:26:40.317Z,1.12
2023-02-08T14:31:44.265Z,1.02
2023-02-08T14:36:46.399Z,1.10
2023-02-08T14:41:54.454Z,0.94
2023-02-08T14:46:55.134Z,0.99
2023-02-08T14:52:00.579Z,0.88
2023-02-08T14:57:04.866Z,0.83
2023-02-08T15:02:15.300Z,0.71
2023-02-08T15:07:33.045Z,0.64
2023-02-08T15:12:36.748Z,0.52
2023-02-08T15:17:42.215Z,0.57
2023-02-08T15:22:44.335Z,0.56
2023-02-08T15:27:48.303Z,0.35
2023-02-08T15:32:49.049Z,0.24
2023-02-08T15:37:51.782Z,0.30
2023-02-08T15:42:52.542Z,0.70
2023-02-08T15:47:54.583Z,1.20
2023-02-08T15:53:01.444Z,0.30
2023-02-08T15:58:07.174Z,-0.02
2023-02-08T16:03:17.226Z,-0.22
2023-02-08T16:08:23.922Z,-0.43
2023-02-08T16:13:28.022Z,0.34
2023-02-08T16:18:39.493Z,-0.37
2023-02-08T16:23:49.224Z,-0.52
2023-02-08T16:28:56.752Z,-0.87
2023-02-08T16:33:59.527Z,-0.95
2023-02-08T16:39:24.117Z,-1.00
2023-02-08T16:44:27.171Z,-1.17
2023-02-08T16:49:28.373Z,-1.03
2023-02-08T16:54:30.425Z,-1.18
2023-02-08T17:04:32.101Z,-1.25
2023-02-08T17:09:34.495Z,-1.44
2023-02-08T17:14:35.176Z,-1.54
2023-02-08T17:19:35.921Z,-1.53
2023-02-08T17:24:39.280Z,-1.62
2023-02-08T17:29:40.253Z,-1.60
2023-02-08T17:34:40.994Z,-1.59
2023-02-08T17:39:42.994Z,-1.61
2023-02-08T17:44:43.667Z,-1.72
2023-02-08T17:49:44.398Z,-1.73
2023-02-08T17:54:46.441Z,-1.66
2023-02-08T17:59:47.196Z,-1.76
2023-02-08T18:04:47.907Z,-1.85
2023-02-08T18:09:49.926Z,-1.87
2023-02-08T18:14:50.641Z,-1.88
2023-02-08T18:19:52.391Z,-1.87
2023-02-08T18:24:55.284Z,-1.91
2023-02-08T18:29:56.045Z,-1.94
2023-02-08T18:34:58.465Z,-2.01
2023-02-08T18:40:00.849Z,-1.95
2023-02-08T18:45:01.538Z,-1.97
2023-02-08T18:50:02.264Z,-2.03
2023-02-08T18:55:05.295Z,-2.14
2023-02-08T19:00:07.284Z,-2.09
2023-02-08T19:05:08.366Z,-2.13
2023-02-08T19:10:10.757Z,-2.04
2023-02-08T19:15:11.524Z,-2.08
2023-02-08T19:20:12.789Z,-2.06
2023-02-08T19:25:14.926Z,-2.04
2023-02-08T19:30:17.128Z,-2.08
2023-02-08T19:35:18.454Z,-2.01
2023-02-08T19:40:21.602Z,-2.12
2023-02-08T19:45:22.541Z,-2.12
2023-02-08T19:50:23.388Z,-2.24
2023-02-08T19:55:25.426Z,-2.23
2023-02-08T20:00:26.416Z,-2.27
2023-02-08T20:05:27.133Z,-2.20
2023-02-08T20:10:29.165Z,-2.19
2023-02-08T20:15:29.865Z,-2.15
2023-02-08T20:20:30.611Z,-2.14
2023-02-08T20:25:33.011Z,-2.17
2023-02-08T20:30:33.902Z,-2.25
2023-02-08T20:35:37.263Z,-2.24
2023-02-08T20:40:39.309Z,-2.13
2023-02-08T20:45:41.825Z,-2.22
2023-02-08T20:50:42.854Z,-2.25
2023-02-08T20:55:45.407Z,-2.24
2023-02-08T21:00:46.539Z,-2.30
2023-02-08T21:05:47.258Z,-2.27
2023-02-08T21:10:49.272Z,-2.15
2023-02-08T21:15:49.966Z,-2.18
2023-02-08T21:20:51.318Z,-2.18
2023-02-08T21:25:53.542Z,-2.21
2023-02-08T21:30:58.027Z,-1.99
2023-02-08T21:36:02.921Z,-2.00
2023-02-08T21:41:08.944Z,-1.92
2023-02-08T21:46:10.441Z,-1.80
2023-02-08T21:51:29.029Z,-1.70
2023-02-08T21:56:31.075Z,-1.60
2023-02-08T22:01:31.827Z,-1.62
2023-02-08T22:06:32.589Z,-1.63
2023-02-08T22:11:35.742Z,-1.66
2023-02-08T22:16:36.705Z,-1.75
2023-02-08T22:21:37.438Z,-1.71
2023-02-08T22:26:39.569Z,-1.72
2023-02-08T22:31:40.421Z,-1.69
2023-02-08T22:36:41.168Z,-1.71
2023-02-08T22:41:43.291Z,-1.73
2023-02-08T22:46:44.024Z,-1.64
2023-02-08T22:51:44.742Z,-1.69
2023-02-08T22:56:46.734Z,-1.78
2023-02-08T23:01:47.668Z,-1.78
2023-02-08T23:06:48.690Z,-1.72
2023-02-08T23:11:50.834Z,-1.89
2023-02-08T23:16:52.031Z,-1.80
2023-02-08T23:21:52.743Z,-1.89
2023-02-08T23:26:54.952Z,-1.87
2023-02-08T23:31:55.687Z,-1.94
2023-02-08T23:36:56.424Z,-2.10
2023-02-08T23:41:58.512Z,-1.96
2023-02-08T23:46:59.225Z,-1.85
2023-02-08T23:51:59.913Z,-1.91
2023-02-08T23:57:01.915Z,-1.86
